createdAt,value
2023-02-17T00:00:56.071Z,31.33
2023-02-17T00:03:24.090Z,30.20
2023-02-17T00:05:52.049Z,31.17
2023-02-17T00:08:19.746Z,31.50
2023-02-17T00:10:56.380Z,30.77
2023-02-17T00:13:25.543Z,31.65
2023-02-17T00:15:53.519Z,31.92
2023-02-17T00:18:21.642Z,29.95
2023-02-17T00:20:49.740Z,33.40
2023-02-17T00:23:17.546Z,31.38
2023-02-17T00:25:45.632Z,29.67
2023-02-17T00:28:13.512Z,31.88
2023-02-17T00:30:42.783Z,31.67
2023-02-17T00:33:10.544Z,30.58
2023-02-17T00:35:40.866Z,31.08
2023-02-17T00:38:09.902Z,30.08
2023-02-17T00:40:38.790Z,31.42
2023-02-17T00:43:06.777Z,29.73
2023-02-17T00:45:34.720Z,32.10
2023-02-17T00:48:04.401Z,31.33
2023-02-17T00:50:32.124Z,30.25
2023-02-17T00:53:00.134Z,30.33
2023-02-17T00:55:28.583Z,30.52
2023-02-17T00:57:56.225Z,31.60
2023-02-17T01:00:24.460Z,31.98
2023-02-17T01:02:52.431Z,30.98
2023-02-17T01:05:21.576Z,33.00
2023-02-17T01:07:49.649Z,32.20
2023-02-17T01:10:17.572Z,33.88
2023-02-17T01:12:46.406Z,31.40
2023-02-17T01:15:14.112Z,32.85
2023-02-17T01:17:43.802Z,31.77
2023-02-17T01:20:11.992Z,33.15
2023-02-17T01:22:41.317Z,30.63
2023-02-17T01:25:09.470Z,30.95
2023-02-17T01:27:37.558Z,31.25
2023-02-17T01:30:06.287Z,29.38
2023-02-17T01:32:34.302Z,29.95
2023-02-17T01:35:01.966Z,29.33
2023-02-17T01:37:29.645Z,30.33
2023-02-17T01:39:58.616Z,29.33
2023-02-17T01:42:26.580Z,28.10
2023-02-17T01:45:41.099Z,28.52
2023-02-17T01:48:11.389Z,29.02
2023-02-17T01:50:42.291Z,26.73
2023-02-17T01:53:12.240Z,30.20
2023-02-17T01:55:42.620Z,27.85
2023-02-17T01:58:13.154Z,26.20
2023-02-17T02:00:41.444Z,27.73
2023-02-17T02:03:11.913Z,27.50
2023-02-17T02:05:41.070Z,26.80
2023-02-17T02:08:10.098Z,26.05
2023-02-17T02:10:37.983Z,27.10
2023-02-17T02:13:08.685Z,24.10
2023-02-17T02:15:40.190Z,22.45
2023-02-17T02:18:35.965Z,24.45
2023-02-17T02:21:43.266Z,22.38
2023-02-17T02:24:22.458Z,22.60
2023-02-17T02:27:16.854Z,22.52
2023-02-17T02:29:59.765Z,24.17
2023-02-17T02:32:57.247Z,20.92
2023-02-17T02:35:32.773Z,21.13
2023-02-17T02:38:06.973Z,20.25
2023-02-17T02:40:37.994Z,22.33
2023-02-17T02:43:06.158Z,20.33
2023-02-17T02:45:34.875Z,20.27
2023-02-17T02:48:04.078Z,20.33
2023-02-17T02:50:42.544Z,18.95
2023-02-17T02:53:38.083Z,20.90
2023-02-17T02:56:11.974Z,20.65
2023-02-17T02:58:47.403Z,19.10
2023-02-17T03:01:20.681Z,17.48
2023-02-17T03:03:54.767Z,19.10
2023-02-17T03:06:27.762Z,17.48
2023-02-17T03:08:58.554Z,17.77
2023-02-17T03:11:33.120Z,15.50
2023-02-17T03:14:03.950Z,17.48
2023-02-17T03:16:32.168Z,16.95
2023-02-17T03:19:01.385Z,17.00
2023-02-17T03:21:35.586Z,16.58
2023-02-17T03:24:03.541Z,13.43
2023-02-17T03:26:31.644Z,15.65
2023-02-17T03:28:59.629Z,14.43
2023-02-17T03:31:30.365Z,14.38
2023-02-17T03:33:58.724Z,15.38
2023-02-17T03:36:29.846Z,15.55
2023-02-17T03:38:57.744Z,15.95
2023-02-17T03:41:25.578Z,15.20
2023-02-17T03:43:53.319Z,15.23
2023-02-17T03:46:21.021Z,14.23
2023-02-17T03:48:49.074Z,15.32
2023-02-17T03:51:18.967Z,13.13
2023-02-17T03:53:48.993Z,15.38
2023-02-17T03:56:17.509Z,14.45
2023-02-17T03:58:45.927Z,14.82
2023-02-17T04:01:13.962Z,14.32
2023-02-17T04:03:42.293Z,15.50
2023-02-17T04:06:10.618Z,14.32
2023-02-17T04:08:39.240Z,13.65
2023-02-17T04:11:09.995Z,14.50
2023-02-17T04:13:38.259Z,14.10
2023-02-17T04:16:07.164Z,14.45
2023-02-17T04:18:35.801Z,14.95
2023-02-17T04:21:03.929Z,15.05
2023-02-17T04:23:31.675Z,15.02
2023-02-17T04:25:59.631Z,14.18
2023-02-17T04:28:29.121Z,14.75
2023-02-17T04:30:58.947Z,14.45
2023-02-17T04:33:27.218Z,12.38
2023-02-17T04:35:59.431Z,14.27
2023-02-17T04:38:28.287Z,13.70
2023-02-17T04:40:56.444Z,13.30
2023-02-17T04:43:24.407Z,14.18
2023-02-17T04:45:53.883Z,14.15
2023-02-17T04:48:22.214Z,13.48
2023-02-17T04:50:49.906Z,13.90
2023-02-17T04:53:17.983Z,13.80
2023-02-17T04:55:45.891Z,13.52
2023-02-17T04:58:13.981Z,13.93
2023-02-17T05:00:41.617Z,14.15
2023-02-17T05:03:10.720Z,13.88
2023-02-17T05:05:38.536Z,14.63
2023-02-17T05:08:06.305Z,14.00
2023-02-17T05:10:33.980Z,14.30
2023-02-17T05:13:01.676Z,14.45
2023-02-17T05:15:29.838Z,13.23
2023-02-17T05:17:57.571Z,13.85
2023-02-17T05:20:26.760Z,13.38
2023-02-17T05:22:54.486Z,13.90
2023-02-17T05:25:22.888Z,12.90
2023-02-17T05:27:50.624Z,12.70
2023-02-17T05:30:18.387Z,13.52
2023-02-17T05:32:46.136Z,12.32
2023-02-17T05:35:13.896Z,13.35
2023-02-17T05:37:42.941Z,12.82
2023-02-17T05:40:11.235Z,13.30
2023-02-17T05:42:39.352Z,14.15
2023-02-17T05:45:07.466Z,13.43
2023-02-17T05:47:35.409Z,12.32
2023-02-17T05:50:03.547Z,14.00
2023-02-17T05:52:31.262Z,12.52
2023-02-17T05:55:00.665Z,12.85
2023-02-17T05:57:28.498Z,12.55
2023-02-17T05:59:56.181Z,11.82
2023-02-17T06:02:23.891Z,12.55
2023-02-17T06:04:51.863Z,11.80
2023-02-17T06:07:19.637Z,13.93
2023-02-17T06:09:47.440Z,13.90
2023-02-17T06:12:16.598Z,14.15
2023-02-17T06:14:44.630Z,14.00
2023-02-17T06:17:12.571Z,12.88
2023-02-17T06:19:40.349Z,13.90
2023-02-17T06:22:08.427Z,14.15
2023-02-17T06:24:36.047Z,12.80
2023-02-17T06:27:03.708Z,13.32
2023-02-17T06:29:32.895Z,13.40
2023-02-17T06:32:01.332Z,13.23
2023-02-17T06:34:29.163Z,14.85
2023-02-17T06:36:57.244Z,12.55
2023-02-17T06:39:24.918Z,13.48
2023-02-17T06:41:52.652Z,13.63
2023-02-17T06:44:20.578Z,13.68
2023-02-17T06:46:49.620Z,13.30
2023-02-17T06:49:17.420Z,13.15
2023-02-17T06:51:52.721Z,13.27
2023-02-17T06:54:20.429Z,15.45
2023-02-17T06:56:48.229Z,16.08
2023-02-17T06:59:16.276Z,14.80
2023-02-17T07:01:43.982Z,16.40
2023-02-17T07:04:12.995Z,16.10
2023-02-17T07:06:40.607Z,17.15
2023-02-17T07:09:08.442Z,17.05
2023-02-17T07:11:36.117Z,17.95
2023-02-17T07:14:03.832Z,15.07
2023-02-17T07:16:31.551Z,17.52
2023-02-17T07:18:59.285Z,16.52
2023-02-17T07:21:28.354Z,17.13
2023-02-17T07:23:56.089Z,16.83
2023-02-17T07:26:23.855Z,17.83
2023-02-17T07:28:51.690Z,17.90
2023-02-17T07:31:19.534Z,16.88
2023-02-17T07:33:48.570Z,17.00
2023-02-17T07:36:19.760Z,16.88
2023-02-17T07:38:49.036Z,16.80
2023-02-17T07:41:18.635Z,18.02
2023-02-17T07:43:46.594Z,16.70
2023-02-17T07:46:17.296Z,18.02
2023-02-17T07:48:45.031Z,18.73
2023-02-17T07:51:14.170Z,18.05
2023-02-17T07:53:42.097Z,17.42
2023-02-17T07:56:12.811Z,17.88
2023-02-17T07:58:42.310Z,16.40
2023-02-17T08:01:11.099Z,17.20
2023-02-17T08:03:39.177Z,16.35
2023-02-17T08:06:10.185Z,16.75
2023-02-17T08:08:55.895Z,16.40
2023-02-17T08:11:44.114Z,15.27
2023-02-17T08:14:13.265Z,15.45
2023-02-17T08:16:41.680Z,16.83
2023-02-17T08:19:09.418Z,16.27
2023-02-17T08:21:37.086Z,18.00
2023-02-17T08:24:05.162Z,16.13
2023-02-17T08:26:34.187Z,15.02
2023-02-17T08:29:01.891Z,16.02
2023-02-17T08:31:31.768Z,15.15
2023-02-17T08:34:01.203Z,14.27
2023-02-17T08:36:29.494Z,12.73
2023-02-17T08:38:58.448Z,12.13
2023-02-17T08:41:29.444Z,12.68
2023-02-17T08:43:59.111Z,11.73
2023-02-17T08:46:27.540Z,12.52
2023-02-17T08:48:56.271Z,12.15
2023-02-17T08:51:26.238Z,11.05
2023-02-17T08:53:56.160Z,11.95
2023-02-17T08:56:24.476Z,10.43
2023-02-17T08:58:52.452Z,10.68
2023-02-17T09:01:22.458Z,10.07
2023-02-17T09:03:51.859Z,9.55
2023-02-17T09:06:19.993Z,9.70
2023-02-17T09:08:48.626Z,11.07
2023-02-17T09:11:18.952Z,9.63
2023-02-17T09:13:46.668Z,9.93
2023-02-17T09:16:14.416Z,9.57
2023-02-17T09:18:43.483Z,9.25
2023-02-17T09:21:13.737Z,7.38
2023-02-17T09:23:42.034Z,8.48
2023-02-17T09:26:11.806Z,9.23
2023-02-17T09:28:40.033Z,8.65
2023-02-17T09:31:12.598Z,8.63
2023-02-17T09:33:41.092Z,8.38
2023-02-17T09:36:11.926Z,8.15
2023-02-17T09:38:41.650Z,8.40
2023-02-17T09:41:16.598Z,7.85
2023-02-17T09:43:44.799Z,8.35
2023-02-17T09:46:16.988Z,7.10
2023-02-17T09:48:45.617Z,7.43
2023-02-17T09:51:20.973Z,7.15
2023-02-17T09:53:53.468Z,7.45
2023-02-17T09:56:23.985Z,8.18
2023-02-17T09:58:54.318Z,6.90
2023-02-17T10:01:24.391Z,7.50
2023-02-17T10:03:55.794Z,6.97
2023-02-17T10:06:27.460Z,7.40
2023-02-17T10:08:59.957Z,7.53
2023-02-17T10:11:31.705Z,8.10
2023-02-17T10:14:03.971Z,8.20
2023-02-17T10:16:35.889Z,7.07
2023-02-17T10:19:09.311Z,8.60
2023-02-17T10:21:41.960Z,9.27
2023-02-17T10:24:09.638Z,8.77
2023-02-17T10:26:50.107Z,9.63
2023-02-17T10:29:23.471Z,9.38
2023-02-17T10:32:04.300Z,9.25
2023-02-17T10:34:36.167Z,10.25
2023-02-17T10:37:12.509Z,9.75
2023-02-17T10:39:47.697Z,9.23
2023-02-17T10:42:21.651Z,9.70
2023-02-17T10:44:50.475Z,10.55
2023-02-17T10:47:18.623Z,9.80
2023-02-17T10:49:49.535Z,10.50
2023-02-17T10:52:20.412Z,9.93
2023-02-17T10:54:52.605Z,8.98
2023-02-17T10:57:21.289Z,9.40
2023-02-17T10:59:49.982Z,8.88
2023-02-17T11:02:23.123Z,9.40
2023-02-17T11:04:54.652Z,9.60
2023-02-17T11:07:32.415Z,9.68
2023-02-17T11:10:02.239Z,9.32
2023-02-17T11:12:34.456Z,9.65
2023-02-17T11:15:04.594Z,9.02
2023-02-17T11:17:36.973Z,9.52
2023-02-17T11:20:10.269Z,8.85
2023-02-17T11:22:41.599Z,8.27
2023-02-17T11:25:22.623Z,8.73
2023-02-17T11:27:54.186Z,9.13
2023-02-17T11:30:22.163Z,8.32
2023-02-17T11:32:50.043Z,8.90
2023-02-17T11:35:24.898Z,8.23
2023-02-17T11:37:54.937Z,12.32
2023-02-17T11:40:27.479Z,10.07
2023-02-17T11:43:00.143Z,10.18
2023-02-17T11:45:32.660Z,9.57
2023-02-17T11:48:13.099Z,9.35
2023-02-17T11:50:46.046Z,10.20
2023-02-17T11:53:26.246Z,10.10
2023-02-17T11:56:07.015Z,8.98
2023-02-17T11:59:03.546Z,8.57
2023-02-17T12:01:44.810Z,9.25
2023-02-17T12:04:22.831Z,9.23
2023-02-17T12:07:01.253Z,8.45
2023-02-17T12:09:37.419Z,9.98
2023-02-17T12:12:12.136Z,9.02
2023-02-17T12:14:59.810Z,9.35
2023-02-17T12:17:39.577Z,9.43
2023-02-17T12:20:21.912Z,9.20
2023-02-17T12:22:57.897Z,9.18
2023-02-17T12:25:28.977Z,8.93
2023-02-17T12:28:12.908Z,8.05
2023-02-17T12:30:52.063Z,7.72
2023-02-17T12:33:41.443Z,7.63
2023-02-17T12:36:11.171Z,7.65
2023-02-17T12:38:43.183Z,7.03
2023-02-17T12:41:14.564Z,7.13
2023-02-17T12:43:44.403Z,7.60
2023-02-17T12:46:13.982Z,6.95
2023-02-17T12:48:44.736Z,6.60
2023-02-17T12:51:17.041Z,6.47
2023-02-17T12:53:47.761Z,7.88
2023-02-17T12:56:41.478Z,6.70
2023-02-17T12:59:16.300Z,7.18
2023-02-17T13:01:50.677Z,7.25
2023-02-17T13:04:20.134Z,7.07
2023-02-17T13:06:51.907Z,6.80
2023-02-17T13:09:28.863Z,6.68
2023-02-17T13:12:10.548Z,6.53
2023-02-17T13:14:43.946Z,7.28
2023-02-17T13:17:24.689Z,6.78
2023-02-17T13:20:16.814Z,7.32
2023-02-17T13:22:46.478Z,7.20
2023-02-17T13:25:27.173Z,6.60
2023-02-17T13:27:56.321Z,6.65
2023-02-17T13:30:31.224Z,6.90
2023-02-17T13:33:03.235Z,6.70
2023-02-17T13:35:34.306Z,5.88
2023-02-17T13:38:02.363Z,6.18
2023-02-17T13:40:35.867Z,5.78
2023-02-17T13:43:15.635Z,4.93
2023-02-17T13:45:45.786Z,5.18
2023-02-17T13:48:16.418Z,5.10
2023-02-17T13:50:46.266Z,4.30
2023-02-17T13:53:29.161Z,4.65
2023-02-17T13:55:58.844Z,4.80
2023-02-17T13:58:29.839Z,4.22
2023-02-17T14:00:59.272Z,4.00
2023-02-17T14:03:29.138Z,3.50
2023-02-17T14:05:58.406Z,4.30
2023-02-17T14:08:33.897Z,2.70
2023-02-17T14:11:07.220Z,3.58
2023-02-17T14:13:37.294Z,2.55
2023-02-17T14:16:06.715Z,3.30
2023-02-17T14:18:37.788Z,3.08
2023-02-17T14:21:11.320Z,2.78
2023-02-17T14:23:44.452Z,2.50
2023-02-17T14:26:14.062Z,2.70
2023-02-17T14:28:54.346Z,2.65
2023-02-17T14:31:22.882Z,3.10
2023-02-17T14:33:58.842Z,11.90
2023-02-17T14:36:29.898Z,4.25
2023-02-17T14:38:58.505Z,2.60
2023-02-17T14:41:27.248Z,2.30
2023-02-17T14:43:56.314Z,2.90
2023-02-17T14:46:24.503Z,3.08
2023-02-17T14:48:52.618Z,4.07
2023-02-17T14:51:22.214Z,3.17
2023-02-17T14:53:51.236Z,3.80
2023-02-17T14:56:22.675Z,3.40
2023-02-17T14:58:50.408Z,3.42
2023-02-17T15:01:21.989Z,3.17
2023-02-17T15:03:49.983Z,3.72
2023-02-17T15:06:19.470Z,4.07
2023-02-17T15:08:49.259Z,4.50
2023-02-17T15:11:19.840Z,3.90
2023-02-17T15:13:48.453Z,4.28
2023-02-17T15:16:16.697Z,3.60
2023-02-17T15:18:45.860Z,4.25
2023-02-17T15:21:23.870Z,4.82
2023-02-17T15:23:51.628Z,4.50
2023-02-17T15:26:19.858Z,3.97
2023-02-17T15:28:47.682Z,4.85
2023-02-17T15:31:16.669Z,4.85
2023-02-17T15:33:46.028Z,5.47
2023-02-17T15:36:15.487Z,5.85
2023-02-17T15:38:43.269Z,4.35
2023-02-17T15:41:15.502Z,4.55
2023-02-17T15:43:45.258Z,4.35
2023-02-17T15:46:15.385Z,4.57
2023-02-17T15:48:43.991Z,4.78
2023-02-17T15:51:14.997Z,5.28
2023-02-17T15:53:43.397Z,4.68
2023-02-17T15:56:13.522Z,4.53
2023-02-17T15:58:41.350Z,4.75
2023-02-17T16:01:14.786Z,3.53
2023-02-17T16:03:42.561Z,3.50
2023-02-17T16:06:10.876Z,4.38
2023-02-17T16:08:40.055Z,4.18
2023-02-17T16:11:11.392Z,2.92
2023-02-17T16:13:39.069Z,3.45
2023-02-17T16:16:10.935Z,4.47
2023-02-17T16:18:38.975Z,4.25
2023-02-17T16:21:07.135Z,4.57
2023-02-17T16:23:34.814Z,3.40
2023-02-17T16:26:04.042Z,4.78
2023-02-17T16:28:32.456Z,3.85
2023-02-17T16:31:00.376Z,3.90
2023-02-17T16:33:28.085Z,4.32
2023-02-17T16:35:55.754Z,4.05
2023-02-17T16:38:24.816Z,5.00
2023-02-17T16:40:54.652Z,4.68
2023-02-17T16:43:25.329Z,4.57
2023-02-17T16:45:54.593Z,4.68
2023-02-17T16:48:24.054Z,3.83
2023-02-17T16:50:52.382Z,6.13
2023-02-17T16:53:20.206Z,3.92
2023-02-17T16:55:49.122Z,3.80
2023-02-17T16:58:19.825Z,3.63
2023-02-17T17:00:49.840Z,3.67
2023-02-17T17:03:17.730Z,4.03
2023-02-17T17:05:46.229Z,3.55
2023-02-17T17:08:16.314Z,3.85
2023-02-17T17:10:44.954Z,4.75
2023-02-17T17:13:13.123Z,4.13
2023-02-17T17:15:43.130Z,4.47
2023-02-17T17:18:19.817Z,4.07
2023-02-17T17:20:48.079Z,4.60
2023-02-17T17:23:15.880Z,4.18
2023-02-17T17:25:46.659Z,4.35
2023-02-17T17:28:15.591Z,3.88
2023-02-17T17:30:44.113Z,4.25
2023-02-17T17:33:13.228Z,4.72
2023-02-17T17:35:41.113Z,4.00
2023-02-17T17:38:10.509Z,7.43
2023-02-17T17:40:53.257Z,4.15
2023-02-17T17:43:23.251Z,4.10
2023-02-17T17:45:52.337Z,3.63
2023-02-17T17:48:21.638Z,4.13
2023-02-17T17:50:49.869Z,4.82
2023-02-17T17:53:17.634Z,3.78
2023-02-17T17:55:46.765Z,3.95
2023-02-17T17:58:16.177Z,4.63
2023-02-17T18:00:44.549Z,4.10
2023-02-17T18:03:12.166Z,4.30
2023-02-17T18:05:41.291Z,3.60
2023-02-17T18:08:09.374Z,5.15
2023-02-17T18:10:39.056Z,3.33
2023-02-17T18:13:08.837Z,3.55
2023-02-17T18:15:36.573Z,4.65
2023-02-17T18:18:04.462Z,3.60
2023-02-17T18:20:32.100Z,4.85
2023-02-17T18:23:01.186Z,3.95
2023-02-17T18:25:28.823Z,3.92
2023-02-17T18:27:56.955Z,4.30
2023-02-17T18:30:25.042Z,4.55
2023-02-17T18:32:52.779Z,4.57
2023-02-17T18:35:21.320Z,3.92
2023-02-17T18:37:49.162Z,4.07
2023-02-17T18:40:20.419Z,4.05
2023-02-17T18:42:49.163Z,3.60
2023-02-17T18:45:17.806Z,4.13
2023-02-17T18:47:46.174Z,4.53
2023-02-17T18:50:15.020Z,5.20
2023-02-17T18:52:43.732Z,4.15
2023-02-17T18:55:11.851Z,4.72
2023-02-17T18:57:41.058Z,4.93
2023-02-17T19:00:10.709Z,4.07
2023-02-17T19:02:39.471Z,4.15
2023-02-17T19:05:09.344Z,4.20
2023-02-17T19:07:37.885Z,4.00
2023-02-17T19:10:06.999Z,3.85
2023-02-17T19:12:35.211Z,4.18
2023-02-17T19:15:05.122Z,4.32
2023-02-17T19:17:33.050Z,4.00
2023-02-17T19:20:00.785Z,4.15
2023-02-17T19:22:28.917Z,3.83
2023-02-17T19:24:56.843Z,3.83
2023-02-17T19:27:24.573Z,3.95
2023-02-17T19:29:52.310Z,3.63
2023-02-17T19:32:21.575Z,4.72
2023-02-17T19:34:49.234Z,4.38
2023-02-17T19:37:16.989Z,3.90
2023-02-17T19:39:45.506Z,4.32
2023-02-17T19:42:13.647Z,4.43
2023-02-17T19:44:41.458Z,3.85
2023-02-17T19:47:09.134Z,5.20
2023-02-17T19:49:38.523Z,5.40
2023-02-17T19:52:07.476Z,4.53
2023-02-17T19:54:35.459Z,4.45
2023-02-17T19:57:03.543Z,4.25
2023-02-17T19:59:32.971Z,4.32
2023-02-17T20:02:00.765Z,5.50
2023-02-17T20:04:28.727Z,4.03
2023-02-17T20:06:58.504Z,4.97
2023-02-17T20:09:26.419Z,4.47
2023-02-17T20:11:54.219Z,4.88
2023-02-17T20:14:22.803Z,4.20
2023-02-17T20:16:53.131Z,4.22
2023-02-17T20:19:20.931Z,3.88
2023-02-17T20:21:48.704Z,4.03
2023-02-17T20:24:18.135Z,4.47
2023-02-17T20:26:50.998Z,4.25
2023-02-17T20:29:18.799Z,4.13
2023-02-17T20:31:46.623Z,4.68
2023-02-17T20:34:25.709Z,4.88
2023-02-17T20:36:53.636Z,4.72
2023-02-17T20:39:23.181Z,3.75
2023-02-17T20:41:51.275Z,4.28
2023-02-17T20:44:19.377Z,4.18
2023-02-17T20:46:47.286Z,3.80
2023-02-17T20:49:16.497Z,4.93
2023-02-17T20:51:44.259Z,4.07
2023-02-17T20:54:12.042Z,4.43
2023-02-17T20:56:42.729Z,4.38
2023-02-17T20:59:15.000Z,3.40
2023-02-17T21:01:43.416Z,4.28
2023-02-17T21:04:13.976Z,4.75
2023-02-17T21:06:43.142Z,4.50
2023-02-17T21:09:14.769Z,3.50
2023-02-17T21:11:44.415Z,4.88
2023-02-17T21:14:13.123Z,4.43
2023-02-17T21:16:40.908Z,4.75
2023-02-17T21:19:09.056Z,4.50
2023-02-17T21:21:36.968Z,3.70
2023-02-17T21:24:05.113Z,3.75
2023-02-17T21:26:33.755Z,4.53
2023-02-17T21:29:04.033Z,3.80
2023-02-17T21:31:33.684Z,4.47
2023-02-17T21:34:01.749Z,4.65
2023-02-17T21:36:30.032Z,4.30
2023-02-17T21:38:59.280Z,5.68
2023-02-17T21:41:29.896Z,5.35
2023-02-17T21:44:16.205Z,4.07
2023-02-17T21:46:46.392Z,3.67
2023-02-17T21:49:14.304Z,4.30
2023-02-17T21:51:42.179Z,4.30
2023-02-17T21:54:10.510Z,5.13
2023-02-17T21:56:39.256Z,4.05
2023-02-17T21:59:07.621Z,3.50
2023-02-17T22:01:36.591Z,5.47
2023-02-17T22:04:06.373Z,4.28
2023-02-17T22:06:36.271Z,4.55
2023-02-17T22:09:05.964Z,5.45
2023-02-17T22:11:34.988Z,3.80
2023-02-17T22:14:04.878Z,4.10
2023-02-17T22:16:36.029Z,4.00
2023-02-17T22:19:06.502Z,4.60
2023-02-17T22:21:34.997Z,5.25
2023-02-17T22:24:03.597Z,3.95
2023-02-17T22:26:31.732Z,4.95
2023-02-17T22:28:59.730Z,4.72
2023-02-17T22:31:29.635Z,4.15
2023-02-17T22:33:58.926Z,3.78
2023-02-17T22:36:28.792Z,4.03
2023-02-17T22:38:57.164Z,4.45
2023-02-17T22:41:26.873Z,4.53
2023-02-17T22:43:55.839Z,3.83
2023-02-17T22:46:25.327Z,4.40
2023-02-17T22:48:53.889Z,4.95
2023-02-17T22:51:23.445Z,3.65
2023-02-17T22:53:53.147Z,4.03
2023-02-17T22:56:21.717Z,4.68
2023-02-17T22:58:53.898Z,4.15
2023-02-17T23:01:21.724Z,3.97
2023-02-17T23:03:53.025Z,5.07
2023-02-17T23:06:23.284Z,5.50
2023-02-17T23:08:53.871Z,4.53
2023-02-17T23:11:39.047Z,4.03
2023-02-17T23:14:07.054Z,4.07
2023-02-17T23:16:34.881Z,4.05
2023-02-17T23:19:02.656Z,3.80
2023-02-17T23:21:30.365Z,3.83
2023-02-17T23:23:59.461Z,4.03
2023-02-17T23:26:27.787Z,3.92
2023-02-17T23:28:55.972Z,4.15
2023-02-17T23:31:23.808Z,4.53
2023-02-17T23:33:51.631Z,4.07
2023-02-17T23:36:19.319Z,3.75
2023-02-17T23:38:47.020Z,3.60
2023-02-17T23:41:16.175Z,4.55
2023-02-17T23:43:43.864Z,4.50
2023-02-17T23:46:11.801Z,4.40
2023-02-17T23:48:39.709Z,3.42
2023-02-17T23:51:07.762Z,3.63
2023-02-17T23:53:35.740Z,4.60
2023-02-17T23:56:05.779Z,4.03
2023-02-17T23:58:35.785Z,3.55
